createdAt,value
2023-04-28T00:02:28.883Z,22.77
2023-04-28T00:04:59.482Z,23.07
2023-04-28T00:07:29.018Z,23.08
2023-04-28T00:09:58.672Z,22.87
2023-04-28T00:12:28.363Z,23.00
2023-04-28T00:14:57.750Z,22.80
2023-04-28T00:17:27.202Z,23.02
2023-04-28T00:19:56.727Z,23.10
2023-04-28T00:22:25.827Z,23.27
2023-04-28T00:24:54.934Z,22.97
2023-04-28T00:27:24.616Z,23.15
2023-04-28T00:29:55.421Z,22.99
2023-04-28T00:32:25.134Z,23.51
2023-04-28T00:34:55.474Z,23.41
2023-04-28T00:37:25.379Z,22.49
2023-04-28T00:39:58.586Z,22.24
2023-04-28T00:42:28.883Z,22.34
2023-04-28T00:44:59.052Z,21.79
2023-04-28T00:47:28.771Z,21.95
2023-04-28T00:53:16.262Z,22.36
2023-04-28T00:55:46.151Z,22.08
2023-04-28T00:58:15.655Z,23.17
2023-04-28T01:00:45.232Z,21.91
2023-04-28T01:03:14.709Z,21.61
2023-04-28T01:05:44.514Z,22.11
2023-04-28T01:08:14.538Z,21.64
2023-04-28T01:10:47.303Z,21.00
2023-04-28T01:13:31.704Z,21.11
2023-04-28T01:16:02.109Z,21.27
2023-04-28T01:18:43.088Z,20.93
2023-04-28T01:21:15.119Z,21.11
2023-04-28T01:23:48.415Z,20.98
2023-04-28T01:26:23.844Z,20.56
2023-04-28T01:28:56.704Z,20.36
2023-04-28T01:31:37.676Z,20.87
2023-04-28T01:34:11.002Z,20.29
2023-04-28T01:40:36.186Z,20.85
2023-04-28T01:43:06.053Z,20.52
2023-04-28T01:45:35.737Z,20.63
2023-04-28T01:48:06.864Z,20.68
2023-04-28T01:50:36.948Z,20.69
2023-04-28T01:53:07.168Z,20.65
2023-04-28T01:55:37.092Z,20.22
2023-04-28T01:58:11.241Z,20.69
2023-04-28T02:00:43.957Z,20.84
2023-04-28T02:03:14.536Z,20.99
2023-04-28T02:05:44.141Z,19.98
2023-04-28T02:08:17.685Z,20.29
2023-04-28T02:10:59.249Z,19.81
2023-04-28T02:13:29.333Z,20.37
2023-04-28T02:16:06.326Z,20.39
2023-04-28T02:18:37.411Z,19.30
2023-04-28T02:21:13.790Z,19.14
2023-04-28T02:23:43.786Z,19.22
2023-04-28T02:26:14.168Z,19.65
2023-04-28T02:28:50.620Z,19.33
2023-04-28T02:31:22.442Z,19.04
2023-04-28T02:33:52.875Z,18.84
2023-04-28T02:36:22.694Z,18.45
2023-04-28T02:39:01.278Z,18.11
2023-04-28T02:41:54.034Z,18.72
2023-04-28T02:45:22.869Z,18.05
2023-04-28T02:48:04.674Z,18.58
2023-04-28T02:50:42.850Z,18.88
2023-04-28T02:53:24.158Z,18.36
2023-04-28T03:11:06.828Z,17.98
2023-04-28T03:13:53.132Z,18.05
2023-04-28T03:20:47.835Z,18.10
2023-04-28T03:24:07.740Z,17.69
2023-04-28T03:27:57.860Z,17.46
2023-04-28T03:31:36.357Z,17.52
2023-04-28T03:39:16.964Z,17.14
2023-04-28T03:41:55.180Z,17.20
2023-04-28T03:45:03.880Z,17.13
2023-04-28T03:47:47.554Z,16.96
2023-04-28T03:50:27.338Z,16.97
2023-04-28T03:54:02.951Z,16.93
2023-04-28T03:56:53.300Z,16.78
2023-04-28T03:59:50.355Z,16.55
2023-04-28T04:02:35.529Z,16.62
2023-04-28T04:05:47.762Z,16.53
2023-04-28T04:08:36.324Z,16.37
2023-04-28T04:12:10.230Z,16.31
2023-04-28T04:24:28.325Z,16.07
2023-04-28T04:27:42.819Z,15.98
2023-04-28T04:30:36.976Z,15.95
2023-04-28T04:33:19.822Z,15.81
2023-04-28T04:35:59.659Z,15.76
2023-04-28T04:38:30.611Z,15.70
2023-04-28T04:41:33.146Z,15.70
2023-04-28T04:44:50.935Z,15.67
2023-04-28T04:47:38.389Z,15.56
2023-04-28T04:50:25.912Z,15.42
2023-04-28T04:53:32.334Z,15.30
2023-04-28T05:13:27.821Z,15.07
2023-04-28T05:24:31.718Z,14.79
2023-04-28T05:42:16.701Z,14.43
2023-04-28T05:45:12.184Z,14.39
2023-04-28T05:49:12.492Z,14.36
2023-04-28T05:51:13.750Z,14.24
2023-04-28T05:54:05.695Z,14.22
2023-04-28T05:56:46.173Z,14.16
2023-04-28T05:59:37.933Z,14.08
2023-04-28T06:06:24.902Z,13.91
2023-04-28T06:09:47.673Z,13.79
2023-04-28T06:12:43.582Z,13.67
2023-04-28T06:15:45.344Z,13.61
2023-04-28T06:18:49.601Z,13.72
2023-04-28T06:21:45.389Z,13.66
2023-04-28T06:24:17.879Z,13.56
2023-04-28T06:27:13.018Z,13.44
2023-04-28T06:30:42.112Z,13.37
2023-04-28T06:33:32.063Z,13.38
2023-04-28T06:36:27.910Z,13.17
2023-04-28T06:39:32.881Z,13.10
2023-04-28T06:47:05.211Z,13.34
2023-04-28T06:50:02.114Z,13.24
2023-04-28T06:56:16.609Z,13.11
2023-04-28T06:59:16.673Z,13.12
2023-04-28T07:02:24.573Z,12.94
2023-04-28T07:06:03.809Z,13.11
2023-04-28T07:08:51.107Z,12.99
2023-04-28T07:12:09.363Z,12.93
2023-04-28T07:15:00.370Z,12.86
2023-04-28T07:17:58.061Z,12.89
2023-04-28T07:20:34.555Z,12.77
2023-04-28T07:23:11.685Z,12.76
2023-04-28T07:26:16.653Z,12.72
2023-04-28T07:29:21.861Z,12.71
2023-04-28T07:32:30.016Z,12.65
2023-04-28T07:35:28.721Z,12.60
2023-04-28T07:39:21.198Z,12.51
2023-04-28T07:41:22.019Z,12.48
2023-04-28T07:44:11.802Z,12.41
2023-04-28T07:47:17.311Z,12.37
2023-04-28T07:54:18.463Z,12.25
2023-04-28T07:56:35.306Z,12.16
2023-04-28T07:59:11.059Z,12.03
2023-04-28T08:01:58.207Z,12.10
2023-04-28T08:04:38.722Z,12.15
2023-04-28T08:07:41.585Z,12.13
2023-04-28T08:10:50.409Z,12.03
2023-04-28T08:14:14.140Z,11.99
2023-04-28T08:17:31.738Z,11.92
2023-04-28T08:20:36.399Z,11.86
2023-04-28T08:23:45.060Z,11.79
2023-04-28T08:26:42.356Z,11.80
2023-04-28T08:29:17.807Z,11.75
2023-04-28T08:32:04.463Z,11.68
2023-04-28T08:34:53.937Z,11.57
2023-04-28T08:37:44.650Z,11.41
2023-04-28T08:41:06.653Z,11.17
2023-04-28T08:44:42.277Z,11.27
2023-04-28T08:48:05.937Z,11.42
2023-04-28T08:50:48.681Z,11.33
2023-04-28T08:54:18.822Z,11.06
2023-04-28T08:57:24.643Z,11.01
2023-04-28T09:00:46.722Z,10.77
2023-04-28T09:04:02.304Z,10.77
2023-04-28T09:06:41.418Z,10.78
2023-04-28T09:09:37.801Z,10.38
2023-04-28T09:12:51.696Z,10.53
2023-04-28T09:15:44.621Z,10.77
2023-04-28T09:18:33.768Z,10.52
2023-04-28T09:22:25.542Z,10.30
2023-04-28T09:25:32.408Z,10.17
2023-04-28T09:28:35.172Z,10.52
2023-04-28T09:31:09.706Z,10.35
2023-04-28T09:36:54.831Z,10.48
2023-04-28T09:40:23.708Z,10.66
2023-04-28T09:44:11.665Z,10.14
2023-04-28T09:47:09.884Z,9.85
2023-04-28T09:50:15.162Z,9.86
2023-04-28T09:53:30.673Z,9.67
2023-04-28T09:56:44.824Z,9.48
2023-04-28T09:59:55.461Z,9.56
2023-04-28T10:02:42.772Z,9.39
2023-04-28T10:05:30.015Z,9.60
2023-04-28T10:09:23.898Z,9.83
2023-04-28T10:16:04.409Z,9.88
2023-04-28T10:19:14.756Z,9.75
2023-04-28T10:22:30.953Z,9.54
2023-04-28T10:26:20.317Z,9.62
2023-04-28T10:29:31.405Z,9.49
2023-04-28T10:33:01.769Z,9.66
2023-04-28T10:35:48.560Z,9.74
2023-04-28T10:38:53.714Z,9.72
2023-04-28T10:41:53.069Z,9.95
2023-04-28T10:44:54.392Z,9.69
2023-04-28T10:48:20.651Z,9.77
2023-04-28T10:51:18.349Z,9.57
2023-04-28T10:54:17.036Z,9.63
2023-04-28T10:58:12.900Z,9.87
2023-04-28T11:01:51.155Z,10.01
2023-04-28T11:13:44.830Z,9.67
2023-04-28T11:16:20.842Z,9.09
2023-04-28T11:19:41.460Z,9.51
2023-04-28T11:22:14.081Z,9.48
2023-04-28T11:25:22.176Z,9.41
2023-04-28T11:28:48.182Z,9.44
2023-04-28T11:31:30.382Z,9.30
2023-04-28T11:34:41.955Z,9.41
2023-04-28T11:37:27.097Z,9.46
2023-04-28T11:40:26.998Z,9.43
2023-04-28T11:44:02.673Z,9.45
2023-04-28T11:47:23.066Z,9.30
2023-04-28T11:51:22.116Z,9.28
2023-04-28T11:54:25.819Z,9.55
2023-04-28T12:01:03.208Z,9.11
2023-04-28T12:03:58.656Z,9.30
2023-04-28T12:06:42.446Z,9.12
2023-04-28T12:09:32.988Z,9.13
2023-04-28T12:12:26.322Z,9.28
2023-04-28T12:18:54.076Z,9.22
2023-04-28T12:22:01.044Z,9.33
2023-04-28T12:25:03.009Z,9.37
2023-04-28T12:27:39.878Z,9.37
2023-04-28T12:30:56.205Z,9.26
2023-04-28T12:33:40.294Z,8.99
2023-04-28T12:36:25.082Z,8.86
2023-04-28T12:39:20.292Z,8.90
2023-04-28T12:41:52.819Z,8.63
2023-04-28T12:44:30.322Z,8.41
2023-04-28T12:47:16.871Z,8.64
2023-04-28T12:49:52.097Z,8.77
2023-04-28T12:52:42.693Z,8.82
2023-04-28T12:55:42.832Z,8.71
2023-04-28T12:58:54.765Z,8.62
2023-04-28T13:02:09.884Z,8.65
2023-04-28T13:05:22.028Z,8.61
2023-04-28T13:08:25.441Z,8.52
2023-04-28T13:11:21.942Z,8.67
2023-04-28T13:14:53.861Z,8.58
2023-04-28T13:17:44.200Z,8.67
2023-04-28T13:24:07.055Z,8.40
2023-04-28T13:27:02.616Z,8.53
2023-04-28T13:30:22.938Z,8.67
2023-04-28T13:33:15.418Z,8.50
2023-04-28T13:35:45.224Z,8.40
2023-04-28T13:38:14.863Z,8.37
2023-04-28T13:40:48.488Z,8.22
2023-04-28T13:43:21.157Z,7.92
2023-04-28T13:45:51.672Z,8.10
2023-04-28T13:48:25.820Z,8.11
2023-04-28T13:50:55.611Z,7.78
2023-04-28T13:53:25.060Z,7.59
2023-04-28T13:55:59.871Z,7.92
2023-04-28T14:03:24.086Z,8.26
2023-04-28T14:06:49.382Z,8.26
2023-04-28T14:10:14.231Z,8.33
2023-04-28T14:12:49.746Z,8.26
2023-04-28T14:20:27.868Z,8.48
2023-04-28T14:23:49.337Z,8.59
2023-04-28T14:30:17.470Z,8.38
2023-04-28T14:32:59.786Z,8.58
2023-04-28T14:35:45.171Z,8.68
2023-04-28T14:38:21.203Z,8.56
2023-04-28T14:42:12.727Z,8.51
2023-04-28T14:51:32.679Z,8.60
2023-04-28T14:58:24.132Z,8.67
2023-04-28T16:14:51.776Z,10.83
2023-04-28T16:17:21.245Z,10.97
2023-04-28T16:19:51.755Z,11.09
2023-04-28T16:22:44.856Z,11.34
2023-04-28T16:25:33.837Z,11.27
2023-04-28T16:28:30.181Z,11.51
2023-04-28T16:31:17.327Z,11.55
2023-04-28T16:33:49.860Z,11.60
2023-04-28T16:37:00.414Z,11.67
2023-04-28T16:43:54.267Z,12.16
2023-04-28T16:46:23.866Z,12.12
2023-04-28T16:48:53.167Z,12.46
2023-04-28T16:51:39.098Z,12.51
2023-04-28T18:04:41.306Z,16.65
2023-04-28T18:07:10.681Z,16.74
2023-04-28T18:12:27.066Z,17.43
2023-04-28T19:37:34.733Z,23.11
2023-04-28T19:44:37.018Z,23.46
2023-04-28T20:21:58.764Z,25.19
2023-04-28T20:25:40.520Z,25.25
